Pagrindinis puslapis
METAR-TAF:

METAR-TAF

Oro uostai :

Kordoba, Argentina

platuma: 31-19S, ilguma: 064-13W, Aukštis: 484 m

Dabartinis oras

Ataskaita buvo paskelbta 23 minutes, ne 00:00 UTC
Vėjas 7 kt iš Šiaurės
Temperatūra 5°C
Drėgmė 56%
Slėgis 1030 hPa
Matomumas 10 km arba daugiau
nėra debesų žemiau 1500 m ir nėra kamuolinių lietaus debesų

METAR: SACO 020000Z 35007KT CAVOK 05/M03 Q1030 NOSIG

Laikas: 21:23 (00:23 UTC)

Prognozė

Ataskaita buvo paskelbta 1 valandą ir 23 minutes, ne 23:00 UTC
Prognozė galioja nuo 02 metu 00 UTC su 02 metu 24 UTC
Vėjas 8 kt iš Šiaurės/Šiaurės Vakarų
Matomumas 10 km arba daugiau
nėra debesų žemiau 1500 m ir nėra kamuolinių lietaus debesų
Tapsmas
nuo 02 metu 12 UTC su 02 metu 14 UTC
Vėjas 15 kt iš Šiaurės/Šiaurės Rytų

TAF: SACO 012300Z 0200/0224 34008KT CAVOK TX24/0218Z TN01/0211Z BECMG 0212/0214 02015KT

Orai ataskaitas ir orų prognozės (METAR, TAF).

turimą stotys yra geltonos ir raudonos taškus žemėlapyje.

Perkelti pele per norėdami pamatyti stoties vardą.

Tada spustelėkite, norėdami matyti oro stebėjimo ir prognozės.

Norėdami pakeisti žemėlapį: spustelėkite ant žalios mygtukų su juodo kryžiaus žemyn,; žalią mygtuką su brūkšneliu, jei norite nutolinti; arba žalių rodyklių gretimoms žemėlapius.


METAR-TAF: